TimeEDT,TemperatureF,Dew PointF,Humidity,Sea Level PressureIn,VisibilityMPH,Wind Direction,Wind SpeedMPH,Gust SpeedMPH,PrecipitationIn,Events,Conditions,WindDirDegrees,DateUTC
12:20 AM,51.8,46.4,82,29.89,8.0,WSW,3.5,-,0.01,Rain,Light Rain,250,2012-10-06 04:20:00
12:54 AM,50.0,46.0,86,29.89,8.0,West,5.8,-,0.04,Rain,Rain,280,2012-10-06 04:54:00
1:15 AM,50.0,46.4,87,29.87,4.0,West,3.5,-,0.05,Rain,Rain,280,2012-10-06 05:15:00
1:37 AM,48.2,46.4,93,29.87,6.0,WNW,5.8,-,0.09,Rain,Rain,300,2012-10-06 05:37:00
1:47 AM,48.2,46.4,93,29.86,4.0,West,4.6,-,0.11,Rain,Rain,280,2012-10-06 05:47:00
1:54 AM,48.9,46.0,90,29.86,5.0,WNW,4.6,-,0.12,Rain,Rain,290,2012-10-06 05:54:00
2:14 AM,48.2,46.4,93,29.87,5.0,WNW,10.4,-,0.03,Rain,Rain,290,2012-10-06 06:14:00
2:22 AM,48.2,46.4,93,29.88,4.0,West,8.1,-,0.04,Rain,Rain,280,2012-10-06 06:22:00
2:54 AM,48.0,45.0,89,29.86,5.0,WNW,5.8,-,0.11,Rain,Rain,290,2012-10-06 06:54:00
3:03 AM,48.2,44.6,87,29.85,6.0,WNW,8.1,-,0.02,Rain,Rain,290,2012-10-06 07:03:00
3:27 AM,46.4,44.6,93,29.84,9.0,WNW,9.2,-,0.06,Rain,Light Rain,300,2012-10-06 07:27:00
3:35 AM,46.4,44.6,93,29.84,6.0,WNW,10.4,-,0.07,Rain,Rain,300,2012-10-06 07:35:00
3:54 AM,46.0,44.1,93,29.86,2.5,NW,6.9,-,0.13,Rain,Heavy Rain,310,2012-10-06 07:54:00
4:09 AM,46.4,44.6,93,29.85,3.0,WNW,6.9,-,0.07,Rain,Heavy Rain,300,2012-10-06 08:09:00
4:45 AM,46.4,44.6,93,29.86,3.0,West,10.4,-,0.20,Rain,Rain,280,2012-10-06 08:45:00
4:54 AM,46.9,44.1,90,29.86,3.0,West,6.9,-,0.23,Rain,Heavy Rain,280,2012-10-06 08:54:00
5:11 AM,46.4,44.6,93,29.86,7.0,West,8.1,-,0.03,Rain,Light Rain,260,2012-10-06 09:11:00
5:21 AM,46.4,44.6,93,29.86,6.0,West,6.9,-,0.04,Rain,Rain,270,2012-10-06 09:21:00
5:51 AM,46.4,44.6,93,29.85,10.0,West,6.9,-,0.06,,Overcast,270,2012-10-06 09:51:00
5:54 AM,46.9,44.1,90,29.86,10.0,West,6.9,-,0.06,Rain,Light Rain,270,2012-10-06 09:54:00
6:06 AM,46.4,44.6,93,29.86,10.0,West,6.9,-,N/A,Rain,Light Rain,280,2012-10-06 10:06:00
6:39 AM,46.4,44.6,93,29.86,8.0,West,6.9,-,0.00,Rain,Light Rain,270,2012-10-06 10:39:00
7:16 AM,46.4,44.6,93,29.87,10.0,West,6.9,-,0.01,Rain,Light Rain,260,2012-10-06 11:16:00
7:48 AM,46.4,42.8,87,29.86,10.0,WSW,5.8,-,0.01,,Mostly Cloudy,240,2012-10-06 11:48:00
7:54 AM,46.9,43.0,86,29.87,10.0,WSW,5.8,-,0.01,,Mostly Cloudy,240,2012-10-06 11:54:00
8:54 AM,46.9,43.0,86,29.88,10.0,West,10.4,-,N/A,,Mostly Cloudy,270,2012-10-06 12:54:00
9:54 AM,51.1,44.1,77,29.89,10.0,West,11.5,-,N/A,,Scattered Clouds,260,2012-10-06 13:54:00
10:54 AM,51.1,39.9,66,29.91,10.0,West,16.1,21.9,N/A,,Mostly Cloudy,270,2012-10-06 14:54:00
11:54 AM,51.1,37.9,61,29.91,10.0,West,16.1,23.0,N/A,,Mostly Cloudy,270,2012-10-06 15:54:00
12:54 PM,53.1,36.0,52,29.91,10.0,WSW,19.6,31.1,N/A,,Mostly Cloudy,240,2012-10-06 16:54:00
1:54 PM,54.0,34.0,47,29.91,10.0,WSW,21.9,27.6,N/A,,Mostly Cloudy,250,2012-10-06 17:54:00
2:54 PM,54.0,33.1,45,29.93,10.0,WSW,17.3,29.9,N/A,,Mostly Cloudy,250,2012-10-06 18:54:00
3:54 PM,52.0,34.0,50,29.94,10.0,West,17.3,27.6,N/A,,Mostly Cloudy,260,2012-10-06 19:54:00
4:54 PM,50.0,33.1,52,29.95,10.0,WNW,15.0,24.2,N/A,,Mostly Cloudy,290,2012-10-06 20:54:00
5:54 PM,48.2,30.2,50,29.97,10.0,West,16.1,25.3,N/A,,Mostly Cloudy,270,2012-10-06 21:54:00
6:54 PM,48.2,30.2,50,29.98,10.0,West,11.5,-,N/A,,Mostly Cloudy,260,2012-10-06 22:54:00
7:54 PM,48.9,30.9,50,30.02,10.0,West,10.4,-,N/A,,Mostly Cloudy,260,2012-10-06 23:54:00
8:54 PM,48.0,30.9,52,30.04,10.0,West,17.3,23.0,N/A,,Mostly Cloudy,260,2012-10-07 00:54:00
9:54 PM,48.0,32.0,54,30.04,10.0,West,13.8,20.7,N/A,,Mostly Cloudy,270,2012-10-07 01:54:00
10:54 PM,48.9,32.0,52,30.05,10.0,West,9.2,-,N/A,,Overcast,280,2012-10-07 02:54:00
11:54 PM,48.0,33.1,56,30.05,10.0,West,9.2,-,N/A,,Overcast,280,2012-10-07 03:54:00